Time;durP1;ratioP1;P1;durP2;ratioP2;P2;SDS_P1;SDS_P2;PMS_P1;PMS_P2;Temp;Humidity;BMP_temperature;BMP_pressure;BME280_temperature;BME280_humidity;BME280_pressure;Samples;Min_cycle;Max_cycle;Signal;HPM_P1;HPM_P2
2022/01/30 00:00:07;;;;;;;11.53;4.10;;;5.90;99.90;;;;;;628253;228;26798;-73
2022/01/30 00:02:35;;;;;;;11.77;3.83;;;5.80;99.90;;;;;;628744;223;26603;-73
2022/01/30 00:05:03;;;;;;;11.97;4.33;;;5.80;99.90;;;;;;626727;228;26624;-73
2022/01/30 00:07:30;;;;;;;16.07;4.30;;;5.80;99.90;;;;;;631020;226;26793;-73
2022/01/30 00:09:57;;;;;;;9.97;3.70;;;5.70;99.90;;;;;;631705;226;26562;-73
2022/01/30 00:12:37;;;;;;;13.50;4.07;;;5.70;99.90;;;;;;627405;228;26630;-73
2022/01/30 00:14:55;;;;;;;18.43;4.67;;;5.70;99.90;;;;;;625332;228;26616;-73
2022/01/30 00:17:26;;;;;;;15.17;4.17;;;5.70;99.90;;;;;;638435;225;26596;-73
2022/01/30 00:19:57;;;;;;;16.43;4.30;;;5.70;99.90;;;;;;631624;225;26802;-73
2022/01/30 00:22:36;;;;;;;20.90;5.70;;;5.70;99.90;;;;;;629227;226;26611;-74
2022/01/30 00:27:28;;;;;;;17.30;4.53;;;5.80;99.90;;;;;;626404;228;26604;-73
2022/01/30 00:29:47;;;;;;;15.40;4.50;;;5.80;99.90;;;;;;626732;226;26602;-72
2022/01/30 00:32:14;;;;;;;16.97;3.80;;;5.90;99.90;;;;;;625588;228;26555;-73
2022/01/30 00:34:42;;;;;;;17.17;4.93;;;5.90;99.90;;;;;;625561;229;26747;-73
2022/01/30 00:37:09;;;;;;;18.67;5.40;;;6.00;99.90;;;;;;625630;229;26530;-73
2022/01/30 00:39:36;;;;;;;14.73;3.87;;;6.10;99.90;;;;;;625603;226;26780;-71
2022/01/30 00:42:04;;;;;;;18.03;4.60;;;6.20;99.90;;;;;;625550;229;26557;-72
2022/01/30 00:44:31;;;;;;;12.67;4.30;;;6.20;99.90;;;;;;625560;230;26760;-72
2022/01/30 00:47:01;;;;;;;14.60;4.33;;;6.30;99.90;;;;;;625589;225;26547;-72
2022/01/30 00:49:26;;;;;;;21.67;5.50;;;6.30;99.90;;;;;;625548;226;26517;-73
2022/01/30 00:51:54;;;;;;;14.50;4.03;;;6.20;99.90;;;;;;625578;223;26579;-73
2022/01/30 00:54:22;;;;;;;10.77;3.50;;;6.20;99.90;;;;;;625583;229;26534;-73
2022/01/30 00:56:49;;;;;;;12.30;4.67;;;6.20;99.90;;;;;;628590;225;26580;-73
2022/01/30 00:59:16;;;;;;;15.50;3.73;;;6.20;99.90;;;;;;626387;229;26515;-74
2022/01/30 01:01:43;;;;;;;15.27;4.27;;;6.00;99.90;;;;;;626004;225;26889;-73
2022/01/30 01:04:10;;;;;;;11.77;4.30;;;5.90;99.90;;;;;;625605;229;26556;-74
2022/01/30 01:06:39;;;;;;;20.40;4.87;;;5.90;99.90;;;;;;627015;227;26829;-74
2022/01/30 01:09:09;;;;;;;17.30;4.50;;;5.90;99.90;;;;;;626750;229;26618;-74
2022/01/30 01:12:07;;;;;;;16.60;4.53;;;5.90;99.90;;;;;;627101;226;26577;-73
2022/01/30 01:24:28;;;;;;;11.33;3.60;;;6.10;99.90;;;;;;635740;226;26562;-72
2022/01/30 01:26:56;;;;;;;14.23;4.17;;;6.20;99.90;;;;;;635654;226;26537;-71
2022/01/30 01:29:24;;;;;;;18.13;4.97;;;6.30;99.90;;;;;;635328;226;26577;-72
2022/01/30 01:31:52;;;;;;;18.50;4.33;;;6.30;99.90;;;;;;635591;226;26565;-71
2022/01/30 01:34:31;;;;;;;13.87;4.10;;;6.30;99.90;;;;;;635608;226;26603;-72
2022/01/30 01:36:50;;;;;;;13.63;4.07;;;6.40;99.90;;;;;;634976;226;26585;-71
2022/01/30 01:39:18;;;;;;;16.70;4.60;;;6.40;99.90;;;;;;635837;225;26572;-71
2022/01/30 01:41:45;;;;;;;15.13;5.53;;;6.40;99.90;;;;;;638196;225;26558;-71
2022/01/30 01:44:16;;;;;;;22.37;4.73;;;6.40;99.90;;;;;;638013;225;26549;-71
2022/01/30 01:46:44;;;;;;;12.20;4.50;;;6.40;99.90;;;;;;638037;225;26520;-72
2022/01/30 01:49:18;;;;;;;12.77;3.80;;;6.40;99.90;;;;;;630937;225;27262;-71
2022/01/30 01:51:37;;;;;;;12.97;4.27;;;6.40;99.90;;;;;;625047;226;26572;-72
2022/01/30 01:54:05;;;;;;;18.07;5.17;;;6.40;99.90;;;;;;625601;228;26794;-72
2022/01/30 01:56:33;;;;;;;18.13;4.87;;;6.40;99.90;;;;;;629406;226;26533;-71
2022/01/30 01:59:01;;;;;;;18.10;4.30;;;6.40;99.90;;;;;;635244;226;26532;-71
2022/01/30 02:01:28;;;;;;;15.53;4.57;;;6.40;99.90;;;;;;635271;226;26572;-73
2022/01/30 02:03:55;;;;;;;12.30;3.77;;;6.40;99.90;;;;;;635286;226;26609;-71
2022/01/30 02:06:23;;;;;;;12.83;4.07;;;6.40;99.90;;;;;;632579;225;26804;-71
2022/01/30 02:08:56;;;;;;;19.20;4.63;;;6.30;99.90;;;;;;625781;229;26512;-71
2022/01/30 02:11:36;;;;;;;10.80;3.97;;;6.10;99.90;;;;;;625354;229;26594;-71
2022/01/30 02:24:37;;;;;;;10.60;3.70;;;5.80;99.90;;;;;;626529;228;26531;-72
2022/01/30 02:26:57;;;;;;;13.97;4.93;;;5.70;99.90;;;;;;625776;229;26506;-71
2022/01/30 02:29:24;;;;;;;14.20;4.27;;;5.70;99.90;;;;;;626258;228;26585;-72
2022/01/30 02:31:55;;;;;;;12.20;4.00;;;5.80;99.90;;;;;;626279;228;26572;-71
2022/01/30 02:34:18;;;;;;;15.53;4.13;;;5.90;99.90;;;;;;625987;229;26818;-71
2022/01/30 02:36:48;;;;;;;16.70;4.50;;;6.00;99.90;;;;;;625933;230;26571;-71
2022/01/30 02:39:13;;;;;;;15.57;4.20;;;6.00;99.90;;;;;;625739;229;26812;-71
2022/01/30 02:41:41;;;;;;;10.77;3.37;;;6.20;99.90;;;;;;625865;228;26603;-71
2022/01/30 02:44:15;;;;;;;14.93;3.37;;;6.30;99.90;;;;;;625893;229;26636;-70
2022/01/30 02:46:41;;;;;;;11.10;4.33;;;6.30;99.90;;;;;;625492;229;26808;-70
2022/01/30 02:49:24;;;;;;;11.03;2.87;;;6.30;99.90;;;;;;625875;228;26988;-70
2022/01/30 02:51:35;;;;;;;15.07;3.83;;;6.30;99.90;;;;;;624674;229;26596;-70
2022/01/30 02:54:03;;;;;;;14.87;4.57;;;6.30;99.90;;;;;;625358;226;26853;-70
2022/01/30 02:56:25;;;;;;;14.33;3.70;;;6.30;99.90;;;;;;625229;229;26557;-70
2022/01/30 02:58:52;;;;;;;9.30;3.20;;;6.20;99.90;;;;;;627522;229;26826;-70
2022/01/30 03:01:20;;;;;;;11.13;4.23;;;6.20;99.90;;;;;;628876;228;26584;-70
2022/01/30 03:03:48;;;;;;;14.87;3.80;;;6.20;99.90;;;;;;628852;229;26643;-70
2022/01/30 03:06:15;;;;;;;14.53;4.00;;;6.20;99.90;;;;;;628885;228;26806;-71
2022/01/30 03:08:42;;;;;;;16.30;3.93;;;6.20;99.90;;;;;;628823;229;26587;-71
2022/01/30 03:11:10;;;;;;;10.77;3.67;;;6.20;99.90;;;;;;628870;229;26805;-71
2022/01/30 03:13:38;;;;;;;12.10;3.53;;;6.20;99.90;;;;;;625830;228;26531;-71
2022/01/30 03:16:05;;;;;;;12.30;4.33;;;6.20;99.90;;;;;;625606;229;26531;-71
2022/01/30 03:18:33;;;;;;;16.20;3.73;;;6.20;99.90;;;;;;625542;228;26561;-71
2022/01/30 03:21:01;;;;;;;14.57;3.97;;;6.20;99.90;;;;;;625543;229;26535;-71
2022/01/30 03:23:29;;;;;;;14.57;4.50;;;6.30;99.90;;;;;;625617;229;26535;-71
2022/01/30 03:25:59;;;;;;;13.27;3.67;;;6.20;99.90;;;;;;625581;228;26813;-66
2022/01/30 03:28:25;;;;;;;15.90;3.60;;;6.10;99.90;;;;;;625884;227;26538;-67
2022/01/30 03:30:58;;;;;;;7.10;3.37;;;6.10;99.90;;;;;;627028;229;26591;-67
2022/01/30 03:33:20;;;;;;;15.43;4.83;;;6.00;99.90;;;;;;626479;229;27235;-67
2022/01/30 03:35:48;;;;;;;18.00;3.80;;;6.00;99.90;;;;;;626595;228;26538;-67
2022/01/30 03:38:16;;;;;;;16.03;4.77;;;5.90;99.90;;;;;;626363;229;26597;-67
2022/01/30 03:40:44;;;;;;;12.97;4.47;;;5.90;99.90;;;;;;626318;228;26530;-67
2022/01/30 03:43:11;;;;;;;10.30;4.63;;;5.90;99.90;;;;;;626217;228;26913;-67
2022/01/30 03:45:39;;;;;;;17.07;4.10;;;5.90;99.90;;;;;;626283;228;26611;-67
2022/01/30 03:48:06;;;;;;;17.27;3.97;;;6.00;99.90;;;;;;626000;229;26850;-67
2022/01/30 03:50:33;;;;;;;16.23;5.00;;;6.00;99.90;;;;;;625933;228;26615;-67
2022/01/30 03:53:00;;;;;;;19.00;4.50;;;5.90;99.90;;;;;;625944;228;26832;-67
2022/01/30 03:55:28;;;;;;;16.27;4.67;;;5.90;99.90;;;;;;625927;228;26617;-67
2022/01/30 03:57:56;;;;;;;14.87;4.43;;;5.90;99.90;;;;;;626507;228;26621;-67
2022/01/30 04:00:23;;;;;;;16.47;4.07;;;5.90;99.90;;;;;;629182;228;26543;-67
2022/01/30 04:02:51;;;;;;;22.53;4.63;;;5.80;99.90;;;;;;629186;228;26554;-67
2022/01/30 04:05:18;;;;;;;7.20;3.20;;;5.80;99.90;;;;;;628955;228;26802;-67
2022/01/30 04:07:45;;;;;;;9.40;3.77;;;5.70;99.90;;;;;;628892;228;26572;-67
2022/01/30 04:10:13;;;;;;;22.87;4.70;;;5.70;99.90;;;;;;628839;229;26571;-68
2022/01/30 04:12:40;;;;;;;13.47;4.03;;;5.60;99.90;;;;;;627099;229;26612;-67
2022/01/30 04:15:08;;;;;;;15.83;4.30;;;5.60;99.90;;;;;;625997;228;26537;-67
2022/01/30 04:17:35;;;;;;;11.53;3.90;;;5.50;99.90;;;;;;625981;228;26515;-67
2022/01/30 04:20:03;;;;;;;14.27;4.07;;;5.40;99.90;;;;;;625972;228;26791;-67
2022/01/30 04:22:31;;;;;;;16.17;4.47;;;5.30;99.90;;;;;;625957;228;26531;-67
2022/01/30 04:24:59;;;;;;;11.77;3.73;;;5.20;99.90;;;;;;625980;229;26551;-67
2022/01/30 04:27:26;;;;;;;10.77;3.77;;;5.20;99.90;;;;;;625893;228;26642;-67
2022/01/30 04:29:53;;;;;;;9.73;4.63;;;5.20;99.90;;;;;;625548;229;26554;-67
2022/01/30 04:32:22;;;;;;;23.03;4.67;;;5.20;99.90;;;;;;625633;228;26555;-67
2022/01/30 04:34:55;;;;;;;15.63;5.07;;;5.20;99.90;;;;;;625706;229;26564;-67
2022/01/30 04:37:24;;;;;;;14.13;3.67;;;5.30;99.90;;;;;;625289;229;26541;-67
2022/01/30 04:51:59;;;;;;;10.27;3.60;;;5.30;99.90;;;;;;627279;229;26574;-67
2022/01/30 04:52:47;;;;;;;12.53;4.13;;;5.50;99.90;;;;;;626171;228;26608;-67
2022/01/30 04:55:46;;;;;;;16.17;4.43;;;5.50;99.90;;;;;;624778;229;26786;-67
2022/01/30 04:57:53;;;;;;;7.83;3.80;;;5.60;99.90;;;;;;624813;228;26588;-67
2022/01/30 05:02:57;;;;;;;17.67;3.90;;;5.60;99.90;;;;;;629222;228;26786;-67
2022/01/30 05:05:40;;;;;;;8.73;3.57;;;5.60;99.90;;;;;;628363;228;26531;-67
2022/01/30 05:07:52;;;;;;;17.13;5.00;;;5.60;99.90;;;;;;627900;228;26550;-67
2022/01/30 05:10:20;;;;;;;11.50;3.47;;;5.60;99.90;;;;;;629116;223;26821;-67
2022/01/30 05:12:52;;;;;;;15.63;3.67;;;5.60;99.90;;;;;;632868;226;26606;-67
2022/01/30 05:15:18;;;;;;;12.60;4.43;;;5.50;99.90;;;;;;635356;226;26525;-67
2022/01/30 05:17:44;;;;;;;18.83;4.40;;;5.50;99.90;;;;;;635609;226;26836;-67
2022/01/30 05:20:12;;;;;;;11.73;3.87;;;5.40;99.90;;;;;;635704;226;26560;-67
2022/01/30 05:22:39;;;;;;;11.10;3.63;;;5.30;99.90;;;;;;635712;226;26627;-68
2022/01/30 05:25:07;;;;;;;12.07;3.53;;;5.30;99.90;;;;;;635701;226;26516;-67
2022/01/30 05:27:34;;;;;;;10.47;3.50;;;5.30;99.90;;;;;;635693;226;26537;-68
2022/01/30 05:30:02;;;;;;;21.30;4.87;;;5.30;99.90;;;;;;635694;226;26514;-67
2022/01/30 05:32:30;;;;;;;17.33;4.50;;;5.30;99.90;;;;;;635651;226;26603;-67
2022/01/30 05:34:58;;;;;;;19.47;4.13;;;5.30;99.90;;;;;;635724;226;26559;-68
2022/01/30 05:37:25;;;;;;;12.60;3.67;;;5.40;99.90;;;;;;635697;226;26546;-68
2022/01/30 05:39:53;;;;;;;13.07;3.90;;;5.50;99.90;;;;;;635700;226;26564;-67
2022/01/30 05:42:20;;;;;;;17.27;3.80;;;5.50;99.90;;;;;;635710;226;26588;-68
2022/01/30 05:44:59;;;;;;;19.40;4.77;;;5.60;99.90;;;;;;635341;226;26538;-68
2022/01/30 05:47:40;;;;;;;10.03;3.93;;;5.60;99.90;;;;;;634640;226;26540;-67
2022/01/30 05:50:00;;;;;;;11.23;4.27;;;5.60;99.90;;;;;;634738;226;26509;-67
2022/01/30 05:52:27;;;;;;;14.00;3.37;;;5.60;99.90;;;;;;636506;224;26794;-67
2022/01/30 05:54:55;;;;;;;15.63;3.73;;;5.60;99.90;;;;;;636751;225;26590;-68
2022/01/30 05:57:22;;;;;;;17.47;4.23;;;5.50;99.90;;;;;;636443;226;26582;-67
2022/01/30 05:59:50;;;;;;;17.37;4.40;;;5.40;99.90;;;;;;628049;226;26632;-67
2022/01/30 06:02:18;;;;;;;14.63;5.47;;;5.50;99.90;;;;;;626242;228;26639;-68
2022/01/30 06:04:45;;;;;;;20.97;4.73;;;5.40;99.90;;;;;;626131;229;26589;-68
2022/01/30 06:07:12;;;;;;;13.83;3.50;;;5.50;99.90;;;;;;626268;228;26581;-67
2022/01/30 06:09:40;;;;;;;15.47;4.13;;;5.50;99.90;;;;;;626119;228;26844;-67
2022/01/30 06:12:09;;;;;;;19.47;4.20;;;5.50;99.90;;;;;;626878;228;26611;-68
2022/01/30 06:14:36;;;;;;;13.23;4.53;;;5.50;99.90;;;;;;629261;228;26542;-68
2022/01/30 06:17:04;;;;;;;15.60;4.20;;;5.60;99.90;;;;;;629225;228;26782;-68
2022/01/30 06:19:31;;;;;;;14.00;3.90;;;5.60;99.90;;;;;;629132;228;26525;-68
2022/01/30 06:21:58;;;;;;;15.97;4.20;;;5.70;99.90;;;;;;629207;228;26801;-68
2022/01/30 06:24:25;;;;;;;25.13;4.37;;;5.70;99.90;;;;;;629170;228;26535;-67
2022/01/30 06:26:53;;;;;;;17.10;5.00;;;5.70;99.90;;;;;;629162;228;26797;-68
2022/01/30 06:29:20;;;;;;;13.80;5.10;;;5.70;99.90;;;;;;628837;229;26575;-68
2022/01/30 06:31:47;;;;;;;16.67;4.87;;;5.70;99.90;;;;;;628842;223;27201;-68
2022/01/30 06:34:15;;;;;;;14.17;4.10;;;5.60;99.90;;;;;;628917;229;26648;-68
2022/01/30 06:36:43;;;;;;;14.80;3.73;;;5.50;99.90;;;;;;628861;229;26579;-67
2022/01/30 06:39:11;;;;;;;14.97;4.33;;;5.50;99.90;;;;;;628847;223;26573;-68
2022/01/30 06:41:37;;;;;;;12.03;3.93;;;5.50;99.90;;;;;;628880;229;26594;-67
2022/01/30 06:44:06;;;;;;;17.63;4.80;;;5.50;99.90;;;;;;628914;228;26791;-68
2022/01/30 06:46:32;;;;;;;10.67;4.03;;;5.50;99.90;;;;;;628746;229;26608;-67
2022/01/30 06:48:59;;;;;;;16.37;3.93;;;5.50;99.90;;;;;;628918;229;27092;-68
2022/01/30 06:51:26;;;;;;;20.13;4.87;;;5.60;99.90;;;;;;628860;223;26617;-68
2022/01/30 06:53:53;;;;;;;9.87;4.23;;;5.70;99.90;;;;;;628892;228;26573;-68
2022/01/30 06:56:21;;;;;;;17.10;5.07;;;5.70;99.90;;;;;;628855;228;26584;-67
2022/01/30 06:58:51;;;;;;;13.17;3.33;;;5.70;99.90;;;;;;628356;229;26578;-68
2022/01/30 07:01:16;;;;;;;18.23;4.93;;;5.80;99.90;;;;;;625599;229;26814;-68
2022/01/30 07:03:43;;;;;;;10.27;3.40;;;5.80;99.90;;;;;;626446;227;26800;-68
2022/01/30 07:06:11;;;;;;;9.33;3.93;;;6.00;99.90;;;;;;627049;228;26539;-67
2022/01/30 07:08:39;;;;;;;12.17;4.00;;;6.00;99.90;;;;;;631420;225;26611;-68
2022/01/30 07:11:07;;;;;;;16.00;3.87;;;6.00;99.90;;;;;;629220;225;26617;-67
2022/01/30 07:13:35;;;;;;;12.17;3.77;;;6.10;99.90;;;;;;629056;226;26539;-68
2022/01/30 07:16:02;;;;;;;14.97;3.93;;;6.10;99.90;;;;;;631267;225;26556;-68
2022/01/30 07:18:29;;;;;;;20.03;4.63;;;6.10;99.90;;;;;;634421;225;26745;-68
2022/01/30 07:20:56;;;;;;;15.73;5.70;;;6.20;99.90;;;;;;632617;225;26802;-68
2022/01/30 07:23:23;;;;;;;19.30;4.60;;;6.20;99.90;;;;;;631734;222;26569;-68
2022/01/30 07:25:51;;;;;;;21.43;4.80;;;6.20;99.90;;;;;;630417;225;26866;-68
2022/01/30 07:28:19;;;;;;;16.00;4.37;;;6.20;99.90;;;;;;629805;225;26615;-68
2022/01/30 07:30:47;;;;;;;18.30;4.57;;;6.20;99.90;;;;;;628410;226;26594;-68
2022/01/30 07:33:15;;;;;;;12.50;4.57;;;6.20;99.90;;;;;;631608;224;26596;-68
2022/01/30 07:35:42;;;;;;;15.47;4.13;;;6.20;99.90;;;;;;627419;226;26828;-66
2022/01/30 07:38:10;;;;;;;14.97;4.47;;;6.20;99.90;;;;;;635746;226;26537;-65
2022/01/30 07:40:38;;;;;;;12.07;3.93;;;6.20;99.90;;;;;;635303;226;26599;-65
2022/01/30 07:43:06;;;;;;;14.90;4.13;;;6.20;99.90;;;;;;635266;226;26576;-65
2022/01/30 07:45:34;;;;;;;12.90;4.23;;;6.20;99.90;;;;;;635313;226;27185;-65
2022/01/30 07:48:02;;;;;;;18.10;4.83;;;6.20;99.90;;;;;;628615;226;27226;-65
2022/01/30 07:50:29;;;;;;;11.63;4.07;;;6.20;99.90;;;;;;629624;225;26596;-66
2022/01/30 07:52:56;;;;;;;10.50;3.73;;;6.20;99.90;;;;;;627401;228;26862;-66
2022/01/30 07:55:24;;;;;;;13.80;3.60;;;6.20;99.90;;;;;;630397;225;26810;-66
2022/01/30 07:57:51;;;;;;;11.80;4.27;;;6.30;99.90;;;;;;627799;229;26544;-65
2022/01/30 08:00:18;;;;;;;13.80;4.53;;;6.30;99.90;;;;;;629786;226;26811;-65
2022/01/30 08:02:47;;;;;;;14.47;4.07;;;6.30;99.90;;;;;;630519;225;26581;-65
2022/01/30 08:05:14;;;;;;;17.20;4.13;;;6.30;99.90;;;;;;629313;226;26561;-65
2022/01/30 08:07:42;;;;;;;15.53;4.87;;;6.30;99.90;;;;;;627757;229;26549;-65
2022/01/30 08:10:09;;;;;;;11.30;4.10;;;6.30;99.90;;;;;;629924;225;26970;-73
2022/01/30 08:12:38;;;;;;;14.33;4.20;;;6.30;99.90;;;;;;633189;225;26805;-72
2022/01/30 08:15:05;;;;;;;15.20;4.00;;;6.30;99.90;;;;;;628964;224;26780;-73
2022/01/30 08:17:36;;;;;;;15.20;3.87;;;6.30;99.90;;;;;;630820;226;26510;-73
2022/01/30 08:20:01;;;;;;;12.87;3.50;;;6.30;99.90;;;;;;633004;225;26575;-72
2022/01/30 08:22:30;;;;;;;14.23;3.97;;;6.30;99.90;;;;;;630498;226;26607;-72
2022/01/30 08:24:55;;;;;;;16.73;4.60;;;6.30;99.90;;;;;;627758;228;26803;-73
2022/01/30 08:27:22;;;;;;;11.33;4.40;;;6.30;99.90;;;;;;628340;226;26874;-73
2022/01/30 08:29:49;;;;;;;14.10;3.70;;;6.30;99.90;;;;;;630243;226;26600;-73
2022/01/30 08:32:17;;;;;;;12.27;3.93;;;6.30;99.90;;;;;;631068;225;26895;-75
2022/01/30 08:34:44;;;;;;;14.70;4.90;;;6.30;99.90;;;;;;631642;225;26546;-73
2022/01/30 08:37:11;;;;;;;16.70;4.53;;;6.40;99.90;;;;;;630312;225;26587;-74
2022/01/30 08:39:39;;;;;;;13.60;4.53;;;6.40;99.90;;;;;;628701;226;26696;-74
2022/01/30 08:42:07;;;;;;;20.23;5.03;;;6.40;99.90;;;;;;631710;225;26648;-72
2022/01/30 08:44:34;;;;;;;13.60;4.80;;;6.40;99.90;;;;;;633147;226;26836;-71
2022/01/30 08:47:02;;;;;;;15.10;4.73;;;6.40;99.90;;;;;;627902;226;26598;-71
2022/01/30 08:49:29;;;;;;;15.07;4.10;;;6.40;99.90;;;;;;626263;228;26817;-71
2022/01/30 08:51:57;;;;;;;13.73;4.27;;;6.50;99.90;;;;;;631033;226;26607;-69
2022/01/30 08:54:25;;;;;;;17.87;4.50;;;6.50;99.90;;;;;;635297;226;26571;-70
2022/01/30 08:56:52;;;;;;;11.87;4.90;;;6.50;99.90;;;;;;633955;226;26550;-71
2022/01/30 08:59:19;;;;;;;12.80;4.10;;;6.50;99.90;;;;;;625908;226;26542;-80
2022/01/30 09:01:46;;;;;;;11.80;3.50;;;6.50;99.90;;;;;;627977;229;26833;-71
2022/01/30 09:04:14;;;;;;;13.20;4.60;;;6.60;99.90;;;;;;627110;226;26588;-71
2022/01/30 09:06:41;;;;;;;15.03;4.33;;;6.60;99.90;;;;;;626957;229;26757;-71
2022/01/30 09:09:08;;;;;;;15.73;4.00;;;6.60;99.90;;;;;;625899;226;26543;-72
2022/01/30 09:11:36;;;;;;;17.20;4.63;;;6.60;99.90;;;;;;629390;226;26618;-71
2022/01/30 09:14:03;;;;;;;15.37;4.63;;;6.70;99.90;;;;;;627215;226;26547;-72
2022/01/30 09:16:31;;;;;;;14.43;4.50;;;6.70;99.90;;;;;;628826;228;26570;-72
2022/01/30 09:18:58;;;;;;;16.03;4.27;;;6.70;99.90;;;;;;633722;226;26836;-72
2022/01/30 09:21:28;;;;;;;18.33;4.87;;;6.70;99.90;;;;;;627451;225;26562;-72
2022/01/30 09:23:53;;;;;;;19.73;4.87;;;6.70;99.90;;;;;;635187;225;26782;-72
2022/01/30 09:26:20;;;;;;;14.83;4.43;;;6.80;99.90;;;;;;628602;227;26581;-73
2022/01/30 09:28:47;;;;;;;12.60;3.77;;;6.70;99.90;;;;;;629279;228;26798;-73
2022/01/30 09:31:16;;;;;;;8.90;4.23;;;6.90;99.90;;;;;;635349;225;26704;-70
2022/01/30 09:33:43;;;;;;;17.80;5.83;;;6.80;99.90;;;;;;629079;228;26591;-71
2022/01/30 09:36:12;;;;;;;16.23;4.97;;;6.90;99.90;;;;;;627816;225;26542;-70
2022/01/30 09:38:38;;;;;;;19.17;5.17;;;6.90;99.90;;;;;;629431;228;27025;-71
2022/01/30 09:41:06;;;;;;;13.90;3.80;;;7.00;99.90;;;;;;626831;228;26533;-71
2022/01/30 09:43:34;;;;;;;14.60;4.30;;;6.90;99.90;;;;;;626001;229;26578;-71
2022/01/30 09:46:02;;;;;;;14.33;4.83;;;6.90;99.90;;;;;;627918;226;26582;-71
2022/01/30 09:48:29;;;;;;;15.57;4.57;;;6.90;99.90;;;;;;635572;226;26551;-71
2022/01/30 09:50:56;;;;;;;12.40;4.23;;;6.90;99.90;;;;;;637424;225;26613;-71
2022/01/30 09:53:23;;;;;;;16.57;4.60;;;6.80;99.90;;;;;;634579;225;26827;-72
2022/01/30 09:55:51;;;;;;;14.00;4.83;;;6.80;99.90;;;;;;626794;227;26619;-72
2022/01/30 09:58:18;;;;;;;15.70;4.47;;;6.80;99.90;;;;;;629159;228;26784;-72
2022/01/30 10:00:46;;;;;;;16.37;4.70;;;6.80;99.90;;;;;;628214;228;26575;-72
2022/01/30 10:03:14;;;;;;;13.53;4.80;;;6.80;99.90;;;;;;634284;225;26628;-72
2022/01/30 10:05:43;;;;;;;15.93;4.50;;;6.70;99.90;;;;;;627047;226;26586;-76
2022/01/30 10:08:08;;;;;;;12.33;4.13;;;6.80;99.90;;;;;;627897;225;26566;-77
2022/01/30 10:10:41;;;;;;;11.10;4.00;;;6.80;99.90;;;;;;632508;225;26835;-76
2022/01/30 10:13:07;;;;;;;13.27;4.40;;;6.80;99.90;;;;;;628317;229;26584;-78
2022/01/30 10:15:46;;;;;;;17.60;5.70;;;6.80;99.90;;;;;;628593;228;26801;-78
2022/01/30 10:18:13;;;;;;;12.60;5.27;;;6.80;99.90;;;;;;627387;227;26805;-76
2022/01/30 10:20:40;;;;;;;11.80;4.17;;;6.80;99.90;;;;;;625571;227;26558;-79
2022/01/30 10:23:09;;;;;;;14.87;4.50;;;6.80;99.90;;;;;;628243;228;26825;-74
2022/01/30 10:25:36;;;;;;;16.53;4.73;;;6.80;99.90;;;;;;628771;229;27133;-72
2022/01/30 10:28:06;;;;;;;14.63;5.63;;;6.90;99.90;;;;;;627546;227;26526;-72
2022/01/30 10:30:39;;;;;;;17.07;5.50;;;6.90;99.90;;;;;;632583;225;26901;-72
2022/01/30 10:33:08;;;;;;;12.97;4.77;;;6.90;99.90;;;;;;635737;225;26793;-72
2022/01/30 10:35:34;;;;;;;19.40;5.00;;;7.00;99.90;;;;;;636314;224;26535;-72
2022/01/30 10:38:04;;;;;;;17.13;4.90;;;7.00;99.90;;;;;;626381;227;26600;-72
2022/01/30 10:40:36;;;;;;;19.17;5.43;;;7.10;99.90;;;;;;626503;226;26568;-72
2022/01/30 10:42:57;;;;;;;20.53;5.80;;;7.00;99.90;;;;;;626776;228;26820;-72
2022/01/30 10:45:26;;;;;;;16.20;4.93;;;7.10;99.90;;;;;;630720;225;26621;-71
2022/01/30 10:48:09;;;;;;;16.37;5.20;;;7.10;99.90;;;;;;635662;224;26831;-72
2022/01/30 10:50:37;;;;;;;17.17;5.87;;;7.10;99.90;;;;;;624284;228;26586;-71
2022/01/30 10:53:05;;;;;;;16.80;5.50;;;7.00;99.90;;;;;;626171;228;26662;-71
2022/01/30 10:55:36;;;;;;;25.00;5.50;;;7.00;99.90;;;;;;631005;225;26576;-71
2022/01/30 10:58:03;;;;;;;24.73;6.07;;;7.00;99.90;;;;;;634831;225;26804;-72
2022/01/30 11:00:36;;;;;;;24.53;6.23;;;7.00;99.90;;;;;;626290;228;26575;-72
2022/01/30 11:03:03;;;;;;;24.77;6.40;;;7.00;99.90;;;;;;625830;228;26605;-71
2022/01/30 11:05:32;;;;;;;24.33;5.37;;;7.00;99.90;;;;;;628577;228;26558;-72
2022/01/30 11:07:57;;;;;;;18.67;5.10;;;7.00;99.90;;;;;;628979;226;26590;-72
2022/01/30 11:10:26;;;;;;;21.63;5.77;;;7.00;99.90;;;;;;632092;225;26873;-72
2022/01/30 11:13:07;;;;;;;22.00;4.97;;;7.00;99.90;;;;;;626905;223;26609;-71
2022/01/30 11:15:37;;;;;;;23.10;5.50;;;7.00;99.90;;;;;;636368;225;26770;-72
2022/01/30 11:18:04;;;;;;;24.67;6.17;;;7.00;99.90;;;;;;631453;226;26630;-72
2022/01/30 11:20:32;;;;;;;25.33;5.77;;;7.20;99.90;;;;;;625544;227;26537;-72
2022/01/30 11:23:00;;;;;;;17.10;5.57;;;7.20;99.90;;;;;;635027;225;26574;-72
2022/01/30 11:25:33;;;;;;;14.77;6.20;;;7.10;99.90;;;;;;625908;225;26551;-72
2022/01/30 11:27:57;;;;;;;29.13;5.43;;;7.20;99.90;;;;;;629340;225;26542;-72
2022/01/30 11:30:23;;;;;;;28.33;6.33;;;7.20;99.90;;;;;;633587;225;27023;-73
2022/01/30 11:32:50;;;;;;;23.73;6.57;;;7.10;99.90;;;;;;626914;228;26561;-72
2022/01/30 11:35:17;;;;;;;22.90;6.43;;;7.10;99.90;;;;;;634639;226;26568;-74
2022/01/30 11:37:45;;;;;;;20.90;6.30;;;7.10;99.90;;;;;;633266;222;26548;-72
2022/01/30 11:40:14;;;;;;;20.97;6.57;;;7.10;99.90;;;;;;630229;226;26580;-72
2022/01/30 11:42:41;;;;;;;19.13;4.97;;;7.10;99.90;;;;;;631391;226;26831;-72
2022/01/30 11:45:27;;;;;;;17.97;5.23;;;7.10;99.90;;;;;;628793;228;26582;-72
2022/01/30 11:47:52;;;;;;;26.60;6.50;;;7.10;99.90;;;;;;634465;226;26587;-72
2022/01/30 11:50:19;;;;;;;26.87;6.60;;;7.10;99.90;;;;;;633216;224;26529;-72
2022/01/30 11:52:49;;;;;;;23.43;5.40;;;7.20;99.90;;;;;;627913;224;26821;-72
2022/01/30 11:55:24;;;;;;;19.57;5.97;;;7.20;99.90;;;;;;626749;228;26546;-72
2022/01/30 11:57:51;;;;;;;21.90;6.13;;;7.20;99.90;;;;;;630261;226;26610;-72
2022/01/30 12:00:34;;;;;;;20.27;5.50;;;7.20;99.90;;;;;;631199;226;26795;-72
2022/01/30 12:03:12;;;;;;;20.87;6.93;;;7.30;99.90;;;;;;628766;228;26605;-72
2022/01/30 12:05:39;;;;;;;25.57;6.03;;;7.40;99.90;;;;;;637218;225;26533;-71
2022/01/30 12:08:07;;;;;;;22.00;6.40;;;7.20;99.90;;;;;;629326;228;26535;-72
2022/01/30 12:10:36;;;;;;;27.27;6.47;;;7.20;99.90;;;;;;625344;226;26637;-72
2022/01/30 12:13:03;;;;;;;28.47;7.73;;;7.20;99.90;;;;;;628795;224;26566;-71
2022/01/30 12:15:38;;;;;;;32.97;7.90;;;7.30;99.90;;;;;;636249;225;26590;-71
2022/01/30 12:18:06;;;;;;;32.97;6.87;;;7.30;99.90;;;;;;627205;228;26555;-71
2022/01/30 12:20:33;;;;;;;29.33;7.17;;;7.20;99.70;;;;;;627286;228;26816;-71
2022/01/30 12:23:01;;;;;;;19.90;6.93;;;7.20;99.60;;;;;;625072;228;26552;-72
2022/01/30 12:25:30;;;;;;;21.73;6.83;;;7.20;99.60;;;;;;627338;226;26576;-71
2022/01/30 12:28:04;;;;;;;21.50;6.30;;;7.20;99.60;;;;;;635366;226;26830;-71
2022/01/30 12:30:32;;;;;;;21.63;6.03;;;7.20;99.40;;;;;;635253;226;26535;-71
2022/01/30 12:32:59;;;;;;;21.70;6.03;;;7.20;99.40;;;;;;635029;226;26557;-71
2022/01/30 12:35:27;;;;;;;20.80;6.23;;;7.20;99.50;;;;;;625915;226;27196;-71
2022/01/30 12:37:54;;;;;;;22.83;5.63;;;7.20;99.70;;;;;;628660;226;26552;-71
2022/01/30 12:40:21;;;;;;;23.87;7.13;;;7.20;99.50;;;;;;635247;226;26544;-72
2022/01/30 12:42:49;;;;;;;26.83;6.33;;;7.30;99.70;;;;;;637172;225;26547;-71
2022/01/30 12:45:18;;;;;;;21.83;5.30;;;7.30;99.70;;;;;;634954;225;26531;-71
2022/01/30 12:47:49;;;;;;;26.57;5.63;;;7.30;99.80;;;;;;627560;226;26584;-71
2022/01/30 12:50:17;;;;;;;24.03;6.27;;;7.30;99.60;;;;;;627297;229;26580;-73
2022/01/30 12:52:49;;;;;;;23.60;5.63;;;7.30;99.60;;;;;;626892;229;26592;-72
2022/01/30 12:55:12;;;;;;;22.97;6.37;;;7.30;99.60;;;;;;633969;226;26551;-73
2022/01/30 12:57:39;;;;;;;23.07;6.83;;;7.40;99.30;;;;;;635671;226;26753;-72
2022/01/30 13:00:08;;;;;;;21.60;6.53;;;7.40;99.40;;;;;;635392;226;26729;-72
2022/01/30 13:02:38;;;;;;;27.87;7.73;;;7.50;99.50;;;;;;630765;224;26889;-72
2022/01/30 13:05:05;;;;;;;21.97;6.63;;;7.50;99.60;;;;;;626779;223;26613;-72
2022/01/30 13:07:32;;;;;;;22.23;6.43;;;7.60;99.40;;;;;;627002;228;26534;-72
2022/01/30 13:10:11;;;;;;;30.23;8.00;;;7.60;99.10;;;;;;631987;226;26578;-72
2022/01/30 13:12:38;;;;;;;26.63;7.20;;;7.50;98.90;;;;;;634844;226;26906;-72
2022/01/30 13:15:06;;;;;;;22.20;7.33;;;7.40;98.90;;;;;;628018;226;26597;-72
2022/01/30 13:17:33;;;;;;;28.00;7.83;;;7.50;98.90;;;;;;626150;228;26550;-72
2022/01/30 13:20:00;;;;;;;21.87;6.30;;;7.50;98.90;;;;;;629493;226;26830;-72
2022/01/30 13:22:29;;;;;;;20.13;6.43;;;7.50;98.90;;;;;;635455;226;26656;-72
2022/01/30 13:24:56;;;;;;;21.63;6.80;;;7.50;99.00;;;;;;635558;225;27254;-72
2022/01/30 13:27:23;;;;;;;21.20;6.10;;;7.50;99.30;;;;;;635497;226;26543;-77